Flight Track Log - Related Links

Times and Time Zones

All times are in EDT time to prevent confusion due to time zone crossing. See the N17773 flight status page for this flight to view local times or setup timezone preferences in your user account.

Time Position Orientation Groundspeed Altitude Reporting Facility
EDT Latitude Longitude Course Direction KTS MPH feet Rate Location/Type
Wed 08:42:19 PM 39.9000 -104.6000 339° North 181 208 6,600  Level Denver TRACON
Wed 08:43:25 PM 39.9667 -104.6333 339° North 252 290 7,700 936 Climbing Denver TRACON
Wed 08:44:08 PM 40.0136 -104.6514 344° North 254 292 8,300 1,086 Climbing Denver Center
Wed 08:45:10 PM 40.0881 -104.6919 337° Northwest 288 331 9,600 1,122 Climbing Denver Center
Wed 08:46:11 PM 40.1111 -104.8075 285° West 314 361 10,600 1,415 Climbing Denver Center
Wed 08:47:13 PM 40.1242 -104.9314 278° West 341 392 12,500 2,032 Climbing Denver Center
Wed 08:48:15 PM 40.1147 -105.0547 264° West 325 374 14,800 1,805 Climbing Denver Center
Wed 08:49:16 PM 40.0567 -105.1456 230° Southwest 331 381 16,200 1,512 Climbing Denver Center
Wed 08:50:18 PM 39.9814 -105.2161 216° Southwest 334 384 17,900 1,597 Climbing Denver Center
Wed 08:51:20 PM 39.8947 -105.2878 212° Southwest 343 395 19,500 1,645 Climbing Denver Center
Wed 08:52:22 PM 39.8181 -105.3611 216° Southwest 344 396 21,300 1,512 Climbing Denver Center
Wed 08:53:23 PM 39.7461 -105.4492 223° Southwest 331 381 22,600 780 Climbing Denver Center
Wed 08:54:25 PM 39.6789 -105.5406 226° Southwest 351 404 22,900 532 Climbing Denver Center
Wed 08:55:27 PM 39.6342 -105.6617 244° Southwest 373 429 23,700 1,024 Climbing Denver Center
Wed 08:56:28 PM 39.6028 -105.7714 250° West 380 437 25,000 1,463 Climbing Denver Center
Wed 08:57:30 PM 39.6028 -105.9183 270° West 365 420 26,700 919 Climbing Denver Center
Wed 08:58:32 PM 39.6128 -106.0567 275° West 381 438 26,900 634 Climbing Denver Center
Wed 08:59:33 PM 39.5969 -106.2303 263° West 402 463 28,000 1,220 Climbing Denver Center
Wed 09:00:35 PM 39.5872 -106.3697 265° West 390 449 29,400 774 Climbing Denver Center
Wed 09:01:37 PM 39.5733 -106.5083 263° West 390 449 29,600 439 Climbing Denver Center
Wed 09:02:38 PM 39.5556 -106.6492 261° West 410 472 30,300 780 Climbing Denver Center
Wed 09:03:40 PM 39.5444 -106.8156 265° West 415 478 31,200 726 Climbing Denver Center
Wed 09:04:42 PM 39.5300 -106.9583 263° West 410 472 31,800 634 Climbing Denver Center
Wed 09:05:43 PM 39.5153 -107.1258 264° West 419 482 32,500 732 Climbing Denver Center
Wed 09:06:45 PM 39.5014 -107.2706 263° West 421 484 33,300 662 Climbing Denver Center
Wed 09:07:59 PM 39.4883 -107.4372 264° West 418 481 34,000 353 Climbing Denver Center
Wed 09:09:01 PM 39.4717 -107.6042 263° West 419 482 34,100  Climbing Denver Center
Wed 09:10:03 PM 39.4542 -107.7758 263° West 428 493 34,000 -49 Descending Denver Center
Wed 09:11:04 PM 39.4383 -107.9253 262° West 436 502 34,000  Level Denver Center
Wed 09:12:06 PM 39.4228 -108.0989 263° West 434 499 34,000  Level Denver Center
Wed 09:13:08 PM 39.4056 -108.2489 262° West 438 504 34,000  Level Denver Center
Wed 09:14:09 PM 39.3908 -108.3972 263° West 435 501 34,000  Level Denver Center
Wed 09:15:11 PM 39.3736 -108.5725 263° West 435 501 34,000  Level Denver Center
Wed 09:16:13 PM 39.3564 -108.7219 262° West 435 501 34,000  Level Denver Center
Wed 09:17:14 PM 39.3394 -108.8725 262° West 437 503 34,000  Level Denver Center
Wed 09:18:16 PM 39.3208 -109.0464 262° West 434 499 34,000  Level Denver Center
Wed 09:19:18 PM 39.3050 -109.1950 262° West 433 498 34,000  Level Denver Center
Wed 09:20:19 PM 39.2856 -109.3650 262° West 428 493 34,000  Level Denver Center
Wed 09:21:33 PM 39.2681 -109.5103 261° West 427 491 34,000  Level Denver Center
Wed 09:22:35 PM 39.2458 -109.7033 262° West 426 490 34,000  Level Denver Center
Wed 09:23:41 PM 39.2269 -109.8717 262° West 423 487 34,000  Level Salt Lake Center
Wed 09:24:42 PM 39.2122 -110.0153 263° West 422 486 34,000  Level Salt Lake Center
Wed 09:25:43 PM 39.1986 -110.1614 263° West 426 490 34,000  Level Salt Lake Center
Wed 09:26:45 PM 39.1881 -110.3303 265° West 425 489 34,000  Level Salt Lake Center
Wed 09:27:46 PM 39.1792 -110.4750 266° West 424 488 34,000  Level Salt Lake Center
Wed 09:28:47 PM 39.1672 -110.6411 265° West 418 481 34,000  Level Salt Lake Center
Wed 09:29:48 PM 39.1597 -110.7839 266° West 417 480 34,000  Level Salt Lake Center
Wed 09:30:50 PM 39.1528 -110.9278 266° West 421 484 34,000  Level Salt Lake Center
Wed 09:31:51 PM 39.1431 -111.0947 266° West 419 482 34,000  Level Salt Lake Center
Wed 09:32:52 PM 39.1356 -111.2369 266° West 417 480 34,000  Level Salt Lake Center
Wed 09:33:54 PM 39.1289 -111.3917 267° West 420 483 34,000  Level Salt Lake Center
Wed 09:34:55 PM 39.1219 -111.5383 267° West 414 476 34,000  Level Salt Lake Center
Wed 09:35:56 PM 39.1064 -111.6861 262° West 418 481 34,000  Level Salt Lake Center
Wed 09:36:57 PM 39.0872 -111.8303 260° West 414 476 34,000  Level Salt Lake Center
Wed 09:37:58 PM 39.0706 -111.9764 262° West 413 475 34,000  Level Salt Lake Center
Wed 09:39:00 PM 39.0492 -112.1528 261° West 416 479 34,000  Level Salt Lake Center
Wed 09:40:01 PM 39.0325 -112.2992 262° West 416 479 34,000  Level Salt Lake Center
Wed 09:41:02 PM 39.0153 -112.4453 261° West 415 478 34,000  Level Salt Lake Center
Wed 09:42:03 PM 38.9969 -112.5911 261° West 415 478 34,000  Level Salt Lake Center
Wed 09:43:05 PM 38.9792 -112.7369 261° West 415 478 34,000  Level Salt Lake Center
Wed 09:44:06 PM 38.9611 -112.8825 261° West 416 479 34,000  Level Salt Lake Center
Wed 09:45:07 PM 38.9428 -113.0258 261° West 413 475 34,000  Level Salt Lake Center
Wed 09:46:08 PM 38.9256 -113.1700 261° West 410 472 34,000  Level Salt Lake Center
Wed 09:47:10 PM 38.9097 -113.3136 262° West 410 472 34,000  Level Salt Lake Center
Wed 09:48:11 PM 38.8867 -113.4814 260° West 404 465 34,000  Level Salt Lake Center
Wed 09:49:13 PM 38.8683 -113.6192 260° West 397 457 34,000  Level Salt Lake Center
Wed 09:50:13 PM 38.8475 -113.7592 259° West 400 460 34,000  Level Salt Lake Center
Wed 09:51:15 PM 38.8297 -113.8964 261° West 394 453 34,000  Level Salt Lake Center
Wed 09:52:16 PM 38.8122 -114.0347 261° West 396 456 34,000  Level Salt Lake Center
Wed 09:53:17 PM 38.7908 -114.1744 259° West 400 460 34,000  Level Salt Lake Center
Wed 09:54:19 PM 38.7742 -114.3128 261° West 396 456 34,000  Level Salt Lake Center
Wed 09:55:20 PM 38.7569 -114.4483 261° West 388 447 34,000  Level Salt Lake Center
Wed 09:56:21 PM 38.7369 -114.5847 259° West 391 450 34,000  Level Salt Lake Center
Wed 09:57:23 PM 38.7150 -114.7481 260° West 390 449 34,000  Level Salt Lake Center
Wed 09:58:24 PM 38.6969 -114.8839 260° West 389 448 34,000  Level Salt Lake Center
Wed 09:59:25 PM 38.6753 -115.0222 259° West 393 452 34,000  Level Salt Lake Center
Wed 10:00:27 PM 38.6569 -115.1556 260° West 390 449 34,000  Level Salt Lake Center
Wed 10:01:30 PM 38.6358 -115.2881 259° West 385 443 34,000  Level Salt Lake Center
Wed 10:02:31 PM 38.6144 -115.4286 259° West 381 438 34,000  Level Salt Lake Center
Wed 10:03:33 PM 38.5944 -115.5633 259° West 385 443 34,000  Level Salt Lake Center
Wed 10:04:34 PM 38.5764 -115.6958 260° West 380 437 34,000  Level Salt Lake Center
Wed 10:05:35 PM 38.5564 -115.8278 259° West 380 437 34,000  Level Salt Lake Center
Wed 10:06:37 PM 38.5361 -115.9592 259° West 378 435 34,000  Level Salt Lake Center
Wed 10:07:38 PM 38.5139 -116.1158 260° West 375 432 34,000  Level Salt Lake Center
Wed 10:08:39 PM 38.4931 -116.2458 258° West 374 430 34,000  Level Salt Lake Center
Wed 10:09:41 PM 38.4736 -116.3764 259° West 375 432 34,000  Level Salt Lake Center
Wed 10:10:24 PM 38.4606 -116.4542 258° West 376 433 34,000  Level Oakland Center
Wed 10:11:25 PM 38.4408 -116.5847 259° West 377 434 34,000  Level Oakland Center
Wed 10:12:26 PM 38.4153 -116.7442 258° West 382 440 34,000  Level Oakland Center
Wed 10:13:27 PM 38.3944 -116.8772 259° West 385 443 34,000  Level Oakland Center
Wed 10:13:46 PM 38.3894 -116.9033 256° West 383 441 34,000  Level Salt Lake Center
Wed 10:14:29 PM 38.3731 -117.0097 259° West 385 443 34,000  Level Oakland Center
Wed 10:15:30 PM 38.3517 -117.1369 258° West 387 445 34,000  Level Oakland Center
Wed 10:16:31 PM 38.3297 -117.2703 258° West 386 444 34,000  Level Oakland Center
Wed 10:17:32 PM 38.3086 -117.4044 259° West 386 444 34,000  Level Oakland Center
Wed 10:18:33 PM 38.2919 -117.5386 261° West 386 444 34,000  Level Oakland Center
Wed 10:19:35 PM 38.2781 -117.7006 264° West 387 445 34,000  Level Oakland Center
Wed 10:20:36 PM 38.2628 -117.8342 262° West 383 441 34,000  Level Oakland Center
Wed 10:21:37 PM 38.2450 -117.9672 260° West 384 442 34,000  Level Oakland Center
Wed 10:22:38 PM 38.2269 -118.0986 260° West 378 435 34,000  Level Oakland Center
Wed 10:23:39 PM 38.2097 -118.2328 261° West 375 432 34,000  Level Oakland Center
Wed 10:24:41 PM 38.1925 -118.3636 261° West 374 430 34,000  Level Oakland Center
Wed 10:25:41 PM 38.1750 -118.4942 260° West 373 429 34,000  Level Oakland Center
Wed 10:26:43 PM 38.1581 -118.6228 261° West 370 426 34,000  Level Oakland Center
Wed 10:27:44 PM 38.1408 -118.7522 260° West 370 426 34,000  Level Oakland Center
Wed 10:28:45 PM 38.1239 -118.8758 260° West 369 425 34,000  Level Oakland Center
Wed 10:29:46 PM 38.1067 -119.0036 260° West 369 425 34,000  Level Oakland Center
Wed 10:30:47 PM 38.0842 -119.1558 259° West 366 421 34,000  Level Oakland Center
Wed 10:31:48 PM 38.0661 -119.2806 260° West 364 419 34,000  Level Oakland Center
Wed 10:32:50 PM 38.0469 -119.4075 259° West 364 419 34,000  Level Oakland Center
Wed 10:33:51 PM 38.0322 -119.5317 261° West 358 412 34,000  Level Oakland Center
Wed 10:34:52 PM 38.0150 -119.6567 260° West 358 412 34,000 -148 Level Oakland Center
Wed 10:35:53 PM 37.9978 -119.7819 260° West 360 414 33,700 -878 Descending Oakland Center
Wed 10:36:55 PM 37.9778 -119.9133 259° West 372 428 32,200 -1,610 Descending Oakland Center
Wed 10:37:56 PM 37.9583 -120.0442 259° West 378 435 30,400 -1,918 Descending Oakland Center
Wed 10:38:57 PM 37.9392 -120.1719 259° West 372 428 28,300 -1,623 Descending Oakland Center
Wed 10:39:58 PM 37.9200 -120.3047 260° West 381 438 27,100 -1,082 Descending Oakland Center
Wed 10:40:59 PM 37.9022 -120.4317 260° West 370 426 26,100 -541 Descending Oakland Center
Wed 10:42:00 PM 37.8814 -120.5581 258° West 367 422 26,000 -829 Descending Oakland Center
Wed 10:43:02 PM 37.8608 -120.6861 259° West 371 427 24,400 -1,902 Descending Oakland Center
Wed 10:44:03 PM 37.8394 -120.8383 260° West 368 423 22,100 -2,505 Descending Oakland Center
Wed 10:44:45 PM 37.8167 -120.9167 250° West 352 405 20,100 -3,353 Descending Northern Cal TRACON
Wed 10:45:45 PM 37.7833 -121.0500 252° West 363 418 16,400 -3,381 Descending Northern Cal TRACON
Wed 10:46:51 PM 37.7667 -121.1667 260° West 368 423 13,000 -2,810 Descending Northern Cal TRACON
Wed 10:47:51 PM 37.7333 -121.2833 250° West 357 411 10,500 -1,579 Descending Northern Cal TRACON
Wed 10:48:45 PM 37.7167 -121.3833 258° West 301 346 10,000 -1,000 Descending Northern Cal TRACON
Wed 10:49:45 PM 37.7000 -121.4667 256° West 277 319 8,600 -1,000 Descending Northern Cal TRACON
Wed 10:50:45 PM 37.6833 -121.5667 258° West 275 316 8,000 -500 Descending Northern Cal TRACON
Wed 10:51:45 PM 37.6500 -121.6500 243° Southwest 271 312 7,600 -650 Descending Northern Cal TRACON
Wed 10:52:45 PM 37.6333 -121.7333 256° West 248 285 6,700 -900 Descending Northern Cal TRACON
Wed 10:53:45 PM 37.6167 -121.8167 256° West 236 272 5,800 -1,150 Descending Northern Cal TRACON
Wed 10:54:45 PM 37.6167 -121.9000 270° West 236 272 4,400 -900 Descending Northern Cal TRACON
Wed 10:55:45 PM 37.6000 -121.9833 256° West 212 244 4,000 -550 Descending Northern Cal TRACON
Wed 10:56:45 PM 37.6000 -122.0500 270° West 205 236 3,300 -800 Descending Northern Cal TRACON
Wed 10:57:45 PM 37.6333 -122.1000 310° West 182 209 2,400 -950 Descending Northern Cal TRACON
Wed 10:58:45 PM 37.6667 -122.1500 310° West 168 193 1,400 -952 Descending Northern Cal TRACON
Wed 10:59:51 PM 37.6833 -122.2000 293° West 142 163 400 -909 Descending Northern Cal TRACON
Wed 11:02:00 PM 37.7167 -122.2167 270° West  Level FlightAware Approximate
Wed 11:09:00 PM 37.7213 -122.2207 270° West  Level Estimated

Login

Don't have an account? Register now (free) for customized features, flight alerts, and more!